Seattle, Washington
Traffic Map
Current Weather Conditions
Seattle, Washington
Broken Clouds
Broken Clouds
54°
Feels Like: 54°
Wind Chill: 54° Ceiling: 6000
Heat Index: 54° Visibility: 10mi
Dew Point: 36° Wind: 5mph
Humidity: 51% Direction: 50° (NE)
Pressure: 29.99in Gusts: 0mph
Raw Report DataKBFI 190353Z 05004KT 10SM BKN060 12/02 A2999 RMK AO2 SLP155 T01220022
Traffic Incident Summary
Active as of:
Severity:
Category:
InformationThere was an issue retrieving the traffic information for this location. Please try a different location or try again shortly.
Advertisements
At Last! Intellicast now available for iPhone and Android